BELLS weather

Bells Field
Des Arc, Arkansas, United States

Public forecast

Using degrees Fahrenheit for public forecast. Weather courtesy of forecast.io.

Closest aviation weather report (METAR) to Bells Field

Closest report is Searcy Municipal Airport, 16.7 nm (31.0 km) NW. Retrieved 2020/01/18 08:20 UTC (2 minutes ago):

KSRC 180820Z AUTO 21007KT 10SM -RA OVC014 11/11 A3005 RMK AO2 P0001

Closest aviation forecast (TAF) to Bells Field

Closest forecast is Little Rock Air Force Base, 30.0 nm (55.5 km) W. Retrieved 2020/01/18 07:35 UTC (47 minutes ago):

TAF KLRF 180700Z 1807/1913 14006KT 8000 -RA BKN016 OVC070 WS020/19045KT 520109 QNH2980INS BECMG 1813/1814 26015G25KT 9999 NSW SCT020 520109 QNH2984INS BECMG 1903/1904 30012G18KT 9999 SKC 520109 QNH3005INS TX15/1813Z TN03/1901Z